Time;durP1;ratioP1;P1;durP2;ratioP2;P2;SDS_P1;SDS_P2;PMS_P1;PMS_P2;Temp;Humidity;BMP_temperature;BMP_pressure;BME280_temperature;BME280_humidity;BME280_pressure;Samples;Min_cycle;Max_cycle;Signal;HPM_P1;HPM_P2
2022/06/01 00:01:48;;;;;;;;;;;;;;;;;;5089696;28;19922;-77
2022/06/01 00:04:35;;;;;;;;;;;;;;;;;;5088320;28;19908;-77
2022/06/01 00:07:23;;;;;;;;;;;;;;;;;;5087843;28;19935;-77
2022/06/01 00:10:10;;;;;;;;;;;;;;;;;;5085296;28;19918;-77
2022/06/01 00:12:56;;;;;;;;;;;;;;;;;;5087147;28;19914;-77
2022/06/01 00:15:43;;;;;;;;;;;;;;;;;;5092813;28;20283;-79
2022/06/01 00:18:29;;;;;;;;;;;;;;;;;;5087399;28;19942;-78
2022/06/01 00:21:16;;;;;;;;;;;;;;;;;;5088880;28;19924;-78
2022/06/01 00:24:02;;;;;;;;;;;;;;;;;;5082446;28;19915;-78
2022/06/01 00:26:49;;;;;;;;;;;;;;;;;;5083000;28;19912;-78
2022/06/01 00:29:36;;;;;;;;;;;;;;;;;;5092393;28;19911;-76
2022/06/01 00:32:22;;;;;;;;;;;;;;;;;;5089416;28;19912;-78
2022/06/01 00:35:09;;;;;;;;;;;;;;;;;;5087454;28;19940;-78
2022/06/01 00:37:55;;;;;;;;;;;;;;;;;;5085269;28;19919;-77
2022/06/01 00:40:42;;;;;;;;;;;;;;;;;;5082580;28;19930;-77
2022/06/01 00:43:29;;;;;;;;;;;;;;;;;;5086058;28;19914;-77
2022/06/01 00:46:15;;;;;;;;;;;;;;;;;;5083811;28;20380;-77
2022/06/01 00:49:01;;;;;;;;;;;;;;;;;;5087711;28;19915;-77
2022/06/01 00:51:48;;;;;;;;;;;;;;;;;;5085800;28;20296;-77
2022/06/01 00:54:34;;;;;;;;;;;;;;;;;;5087808;28;19916;-77
2022/06/01 00:57:21;;;;;;;;;;;;;;;;;;5084420;28;20014;-77
2022/06/01 01:00:07;;;;;;;;;;;;;;;;;;5083935;28;19923;-78
2022/06/01 01:02:55;;;;;;;;;;;;;;;;;;5083563;28;20267;-77
2022/06/01 01:05:41;;;;;;;;;;;;;;;;;;5100169;28;19908;-75
2022/06/01 01:08:28;;;;;;;;;;;;;;;;;;5083702;28;19931;-77
2022/06/01 01:11:14;;;;;;;;;;;;;;;;;;5090385;28;19919;-77
2022/06/01 01:14:01;;;;;;;;;;;;;;;;;;5093443;28;19916;-77
2022/06/01 01:16:48;;;;;;;;;;;;;;;;;;5092317;28;20395;-77
2022/06/01 01:19:34;;;;;;;;;;;;;;;;;;5091124;28;19927;-77
2022/06/01 01:22:21;;;;;;;;;;;;;;;;;;5090570;28;19908;-77
2022/06/01 01:25:07;;;;;;;;;;;;;;;;;;5094183;28;20411;-77
2022/06/01 01:27:54;;;;;;;;;;;;;;;;;;5088626;28;19915;-78
2022/06/01 01:30:40;;;;;;;;;;;;;;;;;;5099983;27;20288;-78
2022/06/01 01:33:27;;;;;;;;;;;;;;;;;;5090535;28;19928;-77
2022/06/01 01:36:14;;;;;;;;;;;;;;;;;;5087248;28;19912;-77
2022/06/01 01:39:01;;;;;;;;;;;;;;;;;;5090850;28;19923;-77
2022/06/01 01:41:48;;;;;;;;;;;;;;;;;;5090435;28;19916;-78
2022/06/01 01:44:34;;;;;;;;;;;;;;;;;;5091004;28;19934;-77
2022/06/01 01:47:21;;;;;;;;;;;;;;;;;;5090560;28;19919;-77
2022/06/01 01:50:08;;;;;;;;;;;;;;;;;;5090721;28;20324;-76
2022/06/01 01:52:54;;;;;;;;;;;;;;;;;;5101384;27;20025;-76
2022/06/01 01:55:41;;;;;;;;;;;;;;;;;;5090799;28;19916;-77
2022/06/01 01:58:27;;;;;;;;;;;;;;;;;;5090752;28;19912;-77
2022/06/01 02:01:14;;;;;;;;;;;;;;;;;;5088251;28;20287;-77
2022/06/01 02:04:00;;;;;;;;;;;;;;;;;;5087047;28;19920;-77
2022/06/01 02:06:47;;;;;;;;;;;;;;;;;;5089913;28;19912;-77
2022/06/01 02:12:41;;;;;;;;;;;;;;;;;;5090820;28;19908;-77
2022/06/01 02:12:42;;;;;;;;;;;;;;;;;;5087899;28;19912;-77
2022/06/01 02:15:29;;;;;;;;;;;;;;;;;;5103976;28;19914;-76
2022/06/01 02:18:15;;;;;;;;;;;;;;;;;;5086077;28;19912;-76
2022/06/01 02:21:02;;;;;;;;;;;;;;;;;;5092078;28;20398;-77
2022/06/01 02:23:48;;;;;;;;;;;;;;;;;;5089637;28;19912;-78
2022/06/01 02:26:35;;;;;;;;;;;;;;;;;;5082816;28;19912;-78
2022/06/01 02:29:21;;;;;;;;;;;;;;;;;;5085381;28;20379;-77
2022/06/01 02:32:09;;;;;;;;;;;;;;;;;;5087800;28;19912;-77
2022/06/01 02:34:55;;;;;;;;;;;;;;;;;;5089090;28;19935;-78
2022/06/01 02:37:41;;;;;;;;;;;;;;;;;;5090219;28;20367;-77
2022/06/01 02:40:29;;;;;;;;;;;;;;;;;;5087368;28;19923;-77
2022/06/01 02:43:15;;;;;;;;;;;;;;;;;;5088599;28;19920;-78
2022/06/01 02:46:02;;;;;;;;;;;;;;;;;;5080371;28;19913;-77
2022/06/01 02:48:48;;;;;;;;;;;;;;;;;;5089116;28;19908;-77
2022/06/01 02:51:34;;;;;;;;;;;;;;;;;;5084327;28;19926;-77
2022/06/01 02:54:21;;;;;;;;;;;;;;;;;;5098447;28;19919;-77
2022/06/01 02:57:08;;;;;;;;;;;;;;;;;;5088784;28;19912;-78
2022/06/01 02:59:54;;;;;;;;;;;;;;;;;;5086504;28;19920;-77
2022/06/01 03:02:42;;;;;;;;;;;;;;;;;;5089536;28;20632;-77
2022/06/01 03:05:28;;;;;;;;;;;;;;;;;;5089690;28;19908;-77
2022/06/01 03:08:15;;;;;;;;;;;;;;;;;;5087512;28;20716;-78
2022/06/01 03:11:01;;;;;;;;;;;;;;;;;;5101690;28;20035;-77
2022/06/01 03:13:48;;;;;;;;;;;;;;;;;;5089749;28;20283;-77
2022/06/01 03:16:34;;;;;;;;;;;;;;;;;;5088212;28;19908;-77
2022/06/01 03:19:21;;;;;;;;;;;;;;;;;;5091281;28;19935;-77
2022/06/01 03:22:07;;;;;;;;;;;;;;;;;;5088177;28;19920;-77
2022/06/01 03:24:54;;;;;;;;;;;;;;;;;;5084702;28;19913;-76
2022/06/01 03:27:40;;;;;;;;;;;;;;;;;;5085018;28;19918;-75
2022/06/01 03:30:27;;;;;;;;;;;;;;;;;;5089270;28;19915;-76
2022/06/01 03:33:13;;;;;;;;;;;;;;;;;;5087222;28;19924;-76
2022/06/01 03:36:00;;;;;;;;;;;;;;;;;;5088324;28;19995;-76
2022/06/01 03:38:46;;;;;;;;;;;;;;;;;;5086440;28;19914;-76
2022/06/01 03:41:33;;;;;;;;;;;;;;;;;;5088086;28;19942;-78
2022/06/01 03:47:24;;;;;;;;;;;;;;;;;;5088733;28;19918;-77
2022/06/01 03:50:11;;;;;;;;;;;;;;;;;;5088845;28;19923;-77
2022/06/01 03:52:57;;;;;;;;;;;;;;;;;;5079794;28;19915;-77
2022/06/01 03:55:44;;;;;;;;;;;;;;;;;;5091113;28;19916;-77
2022/06/01 03:58:30;;;;;;;;;;;;;;;;;;5086975;28;19919;-77
2022/06/01 04:01:17;;;;;;;;;;;;;;;;;;5084949;28;19916;-77
2022/06/01 04:04:04;;;;;;;;;;;;;;;;;;5087288;28;19915;-76
2022/06/01 04:06:50;;;;;;;;;;;;;;;;;;5083822;28;19918;-77
2022/06/01 04:09:37;;;;;;;;;;;;;;;;;;5086656;28;19908;-76
2022/06/01 04:12:23;;;;;;;;;;;;;;;;;;5087586;28;19918;-77
2022/06/01 04:15:10;;;;;;;;;;;;;;;;;;5085066;28;19918;-77
2022/06/01 04:17:56;;;;;;;;;;;;;;;;;;5087788;28;19919;-77
2022/06/01 04:20:43;;;;;;;;;;;;;;;;;;5087897;28;19923;-77
2022/06/01 04:23:29;;;;;;;;;;;;;;;;;;5084243;28;19914;-77
2022/06/01 04:26:16;;;;;;;;;;;;;;;;;;5087523;28;19916;-77
2022/06/01 04:29:02;;;;;;;;;;;;;;;;;;5088482;28;19908;-77
2022/06/01 04:31:49;;;;;;;;;;;;;;;;;;5087421;28;19922;-77
2022/06/01 04:34:35;;;;;;;;;;;;;;;;;;5081051;28;19970;-77
2022/06/01 04:37:22;;;;;;;;;;;;;;;;;;5084367;28;20447;-77
2022/06/01 04:40:08;;;;;;;;;;;;;;;;;;5084463;28;19923;-77
2022/06/01 04:42:55;;;;;;;;;;;;;;;;;;5086142;28;19916;-78
2022/06/01 04:45:41;;;;;;;;;;;;;;;;;;5086704;28;20552;-76
2022/06/01 04:48:28;;;;;;;;;;;;;;;;;;5082587;28;20373;-76
2022/06/01 04:51:14;;;;;;;;;;;;;;;;;;5083729;28;19908;-77
2022/06/01 04:54:01;;;;;;;;;;;;;;;;;;5097353;28;19928;-78
2022/06/01 04:56:47;;;;;;;;;;;;;;;;;;5088081;28;19920;-76
2022/06/01 04:59:33;;;;;;;;;;;;;;;;;;5085293;28;19919;-77
2022/06/01 05:02:20;;;;;;;;;;;;;;;;;;5088304;28;20370;-76
2022/06/01 05:05:06;;;;;;;;;;;;;;;;;;5084217;28;19912;-78
2022/06/01 05:07:53;;;;;;;;;;;;;;;;;;5087705;28;19920;-77
2022/06/01 05:10:39;;;;;;;;;;;;;;;;;;5082029;28;19919;-77
2022/06/01 05:13:26;;;;;;;;;;;;;;;;;;5085873;28;19915;-77
2022/06/01 05:16:12;;;;;;;;;;;;;;;;;;5086032;28;19916;-77
2022/06/01 05:18:59;;;;;;;;;;;;;;;;;;5084352;28;19912;-78
2022/06/01 05:21:45;;;;;;;;;;;;;;;;;;5087287;28;19939;-78
2022/06/01 05:24:32;;;;;;;;;;;;;;;;;;5085556;28;19923;-78
2022/06/01 05:27:18;;;;;;;;;;;;;;;;;;5079262;28;19908;-77
2022/06/01 05:30:05;;;;;;;;;;;;;;;;;;5087551;28;20482;-77
2022/06/01 05:32:51;;;;;;;;;;;;;;;;;;5081161;28;19912;-77
2022/06/01 05:35:38;;;;;;;;;;;;;;;;;;5088051;28;19922;-77
2022/06/01 05:38:24;;;;;;;;;;;;;;;;;;5084765;28;20291;-77
2022/06/01 05:41:11;;;;;;;;;;;;;;;;;;5085750;28;20461;-77
2022/06/01 05:43:57;;;;;;;;;;;;;;;;;;5082387;28;19919;-77
2022/06/01 05:46:46;;;;;;;;;;;;;;;;;;5084257;28;20381;-77
2022/06/01 05:49:32;;;;;;;;;;;;;;;;;;5085578;28;19912;-77
2022/06/01 05:52:19;;;;;;;;;;;;;;;;;;5078261;28;20604;-77
2022/06/01 05:55:05;;;;;;;;;;;;;;;;;;5089215;28;19916;-77
2022/06/01 05:57:52;;;;;;;;;;;;;;;;;;5090564;28;19912;-77
2022/06/01 06:00:38;;;;;;;;;;;;;;;;;;5090254;28;19923;-77
2022/06/01 06:03:25;;;;;;;;;;;;;;;;;;5085769;28;19924;-77
2022/06/01 06:06:12;;;;;;;;;;;;;;;;;;5084626;28;19908;-76
2022/06/01 06:09:02;;;;;;;;;;;;;;;;;;5078654;28;19915;-76
2022/06/01 06:11:48;;;;;;;;;;;;;;;;;;5090331;28;19919;-78
2022/06/01 06:14:35;;;;;;;;;;;;;;;;;;5090445;28;19908;-77
2022/06/01 06:17:21;;;;;;;;;;;;;;;;;;5089886;28;19914;-76
2022/06/01 06:20:08;;;;;;;;;;;;;;;;;;5101963;28;19939;-76
2022/06/01 06:22:54;;;;;;;;;;;;;;;;;;5090527;28;21450;-76
2022/06/01 06:25:41;;;;;;;;;;;;;;;;;;5081075;28;19916;-76
2022/06/01 06:28:27;;;;;;;;;;;;;;;;;;5088329;28;19915;-76
2022/06/01 06:31:14;;;;;;;;;;;;;;;;;;5090446;28;19927;-77
2022/06/01 06:34:00;;;;;;;;;;;;;;;;;;5089862;28;19947;-76
2022/06/01 06:36:47;;;;;;;;;;;;;;;;;;5087203;28;19990;-76
2022/06/01 06:39:33;;;;;;;;;;;;;;;;;;5089013;28;20558;-75
2022/06/01 06:42:20;;;;;;;;;;;;;;;;;;5087373;28;19916;-75
2022/06/01 06:45:06;;;;;;;;;;;;;;;;;;5089452;28;19908;-75
2022/06/01 06:47:53;;;;;;;;;;;;;;;;;;5083545;28;20291;-76
2022/06/01 06:50:49;;;;;;;;;;;;;;;;;;5092519;28;19923;-75
2022/06/01 06:53:53;;;;;;;;;;;;;;;;;;5099549;28;20374;-76
2022/06/01 06:56:43;;;;;;;;;;;;;;;;;;5089062;28;19912;-77
2022/06/01 06:59:37;;;;;;;;;;;;;;;;;;5084517;28;19919;-77
2022/06/01 07:02:23;;;;;;;;;;;;;;;;;;5084744;28;19916;-79
2022/06/01 07:06:08;;;;;;;;;;;;;;;;;;5088175;28;19918;-77
2022/06/01 07:08:16;;;;;;;;;;;;;;;;;;5081762;28;19965;-78
2022/06/01 07:11:03;;;;;;;;;;;;;;;;;;5089260;28;19908;-76
2022/06/01 07:13:50;;;;;;;;;;;;;;;;;;5089625;28;19908;-76
2022/06/01 07:16:44;;;;;;;;;;;;;;;;;;5077717;28;19909;-78
2022/06/01 07:19:31;;;;;;;;;;;;;;;;;;5087372;28;19937;-78
2022/06/01 07:22:19;;;;;;;;;;;;;;;;;;5087994;28;19916;-78
2022/06/01 07:25:06;;;;;;;;;;;;;;;;;;5085291;28;20298;-78
2022/06/01 07:27:58;;;;;;;;;;;;;;;;;;5091166;28;19908;-78
2022/06/01 07:30:46;;;;;;;;;;;;;;;;;;5089444;28;19916;-78
2022/06/01 07:33:33;;;;;;;;;;;;;;;;;;5095040;28;19925;-78
2022/06/01 07:36:19;;;;;;;;;;;;;;;;;;5076340;28;19908;-78
2022/06/01 07:45:16;;;;;;;;;;;;;;;;;;5068673;28;19923;-78
2022/06/01 07:48:03;;;;;;;;;;;;;;;;;;5070714;28;19999;-77
2022/06/01 07:50:51;;;;;;;;;;;;;;;;;;5070271;28;19919;-78
2022/06/01 07:53:40;;;;;;;;;;;;;;;;;;5051504;28;19913;-78
2022/06/01 07:56:26;;;;;;;;;;;;;;;;;;5084708;28;19916;-76
2022/06/01 07:59:16;;;;;;;;;;;;;;;;;;5079453;28;19908;-77
2022/06/01 08:02:10;;;;;;;;;;;;;;;;;;5080136;28;19917;-77
2022/06/01 08:04:58;;;;;;;;;;;;;;;;;;5064795;28;19924;-78
2022/06/01 08:07:45;;;;;;;;;;;;;;;;;;5076507;28;19915;-77
2022/06/01 08:10:31;;;;;;;;;;;;;;;;;;5070176;28;20654;-78
2022/06/01 08:13:18;;;;;;;;;;;;;;;;;;5077720;28;19920;-77
2022/06/01 08:16:04;;;;;;;;;;;;;;;;;;5066256;28;19912;-77
2022/06/01 08:18:51;;;;;;;;;;;;;;;;;;5065483;28;19931;-79
2022/06/01 08:21:37;;;;;;;;;;;;;;;;;;5060204;28;19923;-78
2022/06/01 08:24:24;;;;;;;;;;;;;;;;;;5067121;28;19908;-78
2022/06/01 08:27:10;;;;;;;;;;;;;;;;;;5065122;28;19912;-79
2022/06/01 08:29:57;;;;;;;;;;;;;;;;;;5081575;28;19916;-77
2022/06/01 08:32:43;;;;;;;;;;;;;;;;;;5068895;28;19908;-78
2022/06/01 08:35:30;;;;;;;;;;;;;;;;;;5074281;28;19927;-78
2022/06/01 08:38:16;;;;;;;;;;;;;;;;;;5068628;28;19922;-76
2022/06/01 08:41:03;;;;;;;;;;;;;;;;;;5068796;28;19935;-77
2022/06/01 08:43:50;;;;;;;;;;;;;;;;;;5064353;28;19917;-77
2022/06/01 08:46:37;;;;;;;;;;;;;;;;;;5065142;28;19917;-77
2022/06/01 08:49:24;;;;;;;;;;;;;;;;;;5066068;28;19908;-77
2022/06/01 08:52:10;;;;;;;;;;;;;;;;;;5066036;28;20619;-76
2022/06/01 08:54:57;;;;;;;;;;;;;;;;;;5064714;28;19916;-77
2022/06/01 08:57:43;;;;;;;;;;;;;;;;;;5080898;28;19927;-77
2022/06/01 09:00:29;;;;;;;;;;;;;;;;;;5067462;28;20001;-77
2022/06/01 09:03:16;;;;;;;;;;;;;;;;;;5065613;28;20003;-77
2022/06/01 09:06:04;;;;;;;;;;;;;;;;;;5065127;28;19919;-77
2022/06/01 09:08:50;;;;;;;;;;;;;;;;;;5044102;28;19917;-77
2022/06/01 09:11:38;;;;;;;;;;;;;;;;;;5060707;28;20351;-77
2022/06/01 09:14:24;;;;;;;;;;;;;;;;;;5091610;28;19909;-77
2022/06/01 09:17:10;;;;;;;;;;;;;;;;;;5069034;28;19912;-78
2022/06/01 09:23:02;;;;;;;;;;;;;;;;;;5066190;28;19923;-78
2022/06/01 09:25:50;;;;;;;;;;;;;;;;;;5069412;28;19920;-77
2022/06/01 09:28:36;;;;;;;;;;;;;;;;;;5066739;28;19912;-77
2022/06/01 09:31:23;;;;;;;;;;;;;;;;;;5070885;28;19912;-77
2022/06/01 09:34:09;;;;;;;;;;;;;;;;;;5060115;28;19924;-77
2022/06/01 09:36:56;;;;;;;;;;;;;;;;;;5049588;28;19928;-77
2022/06/01 09:39:42;;;;;;;;;;;;;;;;;;5050178;28;19913;-78
2022/06/01 09:42:30;;;;;;;;;;;;;;;;;;5046680;28;19928;-77
2022/06/01 09:45:16;;;;;;;;;;;;;;;;;;5048497;28;19923;-77
2022/06/01 09:48:03;;;;;;;;;;;;;;;;;;5050927;28;20457;-78
2022/06/01 09:50:49;;;;;;;;;;;;;;;;;;5052175;28;19917;-77
2022/06/01 09:53:36;;;;;;;;;;;;;;;;;;5043853;28;19913;-77
2022/06/01 09:56:22;;;;;;;;;;;;;;;;;;5047045;28;19909;-77
2022/06/01 10:08:28;;;;;;;;;;;;;;;;;;5049807;28;19920;-77
2022/06/01 10:11:15;;;;;;;;;;;;;;;;;;5049898;28;20377;-77
2022/06/01 10:14:01;;;;;;;;;;;;;;;;;;5051106;28;19912;-77
2022/06/01 10:16:48;;;;;;;;;;;;;;;;;;5039677;28;19910;-77
2022/06/01 10:19:34;;;;;;;;;;;;;;;;;;5045775;28;19916;-77
2022/06/01 10:22:21;;;;;;;;;;;;;;;;;;5047344;28;20015;-76
2022/06/01 10:25:07;;;;;;;;;;;;;;;;;;5051923;28;20386;-77
2022/06/01 10:27:54;;;;;;;;;;;;;;;;;;5055855;28;19955;-77
2022/06/01 10:30:40;;;;;;;;;;;;;;;;;;5050916;28;19919;-77
2022/06/01 10:33:27;;;;;;;;;;;;;;;;;;5049278;28;20424;-76
2022/06/01 10:36:14;;;;;;;;;;;;;;;;;;5049370;28;19913;-78
2022/06/01 10:39:00;;;;;;;;;;;;;;;;;;5049620;28;19913;-77
2022/06/01 10:41:47;;;;;;;;;;;;;;;;;;5050393;28;19925;-77
2022/06/01 10:44:33;;;;;;;;;;;;;;;;;;5044902;28;19919;-77
2022/06/01 10:47:20;;;;;;;;;;;;;;;;;;5042724;28;19908;-77
2022/06/01 10:50:06;;;;;;;;;;;;;;;;;;5048905;28;20395;-76
2022/06/01 10:52:54;;;;;;;;;;;;;;;;;;5044776;28;19920;-77
2022/06/01 10:55:40;;;;;;;;;;;;;;;;;;5046811;28;19912;-76
2022/06/01 10:58:27;;;;;;;;;;;;;;;;;;5041221;28;19913;-78
2022/06/01 11:01:15;;;;;;;;;;;;;;;;;;5049405;28;19912;-77
2022/06/01 11:04:01;;;;;;;;;;;;;;;;;;5045563;28;19932;-77
2022/06/01 11:06:48;;;;;;;;;;;;;;;;;;5047707;28;20638;-77
2022/06/01 11:09:34;;;;;;;;;;;;;;;;;;5051760;28;19920;-77
2022/06/01 11:12:21;;;;;;;;;;;;;;;;;;5043929;28;19917;-77
2022/06/01 11:15:07;;;;;;;;;;;;;;;;;;5044485;28;20273;-76
2022/06/01 11:17:54;;;;;;;;;;;;;;;;;;5047048;28;19908;-77
2022/06/01 11:20:41;;;;;;;;;;;;;;;;;;5041114;28;19917;-81
2022/06/01 11:23:27;;;;;;;;;;;;;;;;;;5044353;28;19920;-75
2022/06/01 11:26:14;;;;;;;;;;;;;;;;;;5049756;28;20280;-77
2022/06/01 11:29:00;;;;;;;;;;;;;;;;;;5049377;28;19923;-77
2022/06/01 11:31:51;;;;;;;;;;;;;;;;;;5043733;28;19916;-78
2022/06/01 11:34:38;;;;;;;;;;;;;;;;;;5062316;28;19942;-77
2022/06/01 11:37:24;;;;;;;;;;;;;;;;;;5069127;28;19915;-77
2022/06/01 11:40:11;;;;;;;;;;;;;;;;;;5063540;28;19909;-76
2022/06/01 11:42:57;;;;;;;;;;;;;;;;;;5065163;28;19935;-76
2022/06/01 11:45:43;;;;;;;;;;;;;;;;;;5065572;28;19916;-75
2022/06/01 11:48:30;;;;;;;;;;;;;;;;;;5064347;28;19921;-76
2022/06/01 11:51:16;;;;;;;;;;;;;;;;;;5066124;28;19917;-77
2022/06/01 11:54:05;;;;;;;;;;;;;;;;;;5060890;28;19920;-77
2022/06/01 11:56:51;;;;;;;;;;;;;;;;;;5066375;28;19919;-78
2022/06/01 11:59:38;;;;;;;;;;;;;;;;;;5062903;28;20367;-77
2022/06/01 12:02:48;;;;;;;;;;;;;;;;;;5070476;28;20368;-77
2022/06/01 12:05:35;;;;;;;;;;;;;;;;;;5069537;28;20390;-77
2022/06/01 12:08:24;;;;;;;;;;;;;;;;;;5069963;28;20237;-77
2022/06/01 12:11:11;;;;;;;;;;;;;;;;;;5057315;28;19923;-77
2022/06/01 12:13:57;;;;;;;;;;;;;;;;;;5067861;28;19912;-77
2022/06/01 12:16:43;;;;;;;;;;;;;;;;;;5063728;28;19977;-77
2022/06/01 12:19:30;;;;;;;;;;;;;;;;;;5068687;28;19913;-76
2022/06/01 12:28:30;;;;;;;;;;;;;;;;;;5068357;28;19925;-77
2022/06/01 12:28:31;;;;;;;;;;;;;;;;;;5070770;28;20383;-76
2022/06/01 12:31:17;;;;;;;;;;;;;;;;;;5066093;28;19912;-77
2022/06/01 12:34:04;;;;;;;;;;;;;;;;;;5080877;28;19921;-75
2022/06/01 12:36:50;;;;;;;;;;;;;;;;;;5082885;28;20494;-78
2022/06/01 12:39:37;;;;;;;;;;;;;;;;;;5068486;28;19916;-76
2022/06/01 12:42:23;;;;;;;;;;;;;;;;;;5068125;28;19916;-77
2022/06/01 12:45:10;;;;;;;;;;;;;;;;;;5068632;28;19908;-76
2022/06/01 12:47:57;;;;;;;;;;;;;;;;;;5058789;28;19913;-78
2022/06/01 12:50:43;;;;;;;;;;;;;;;;;;5068575;28;19923;-77
2022/06/01 12:53:30;;;;;;;;;;;;;;;;;;5067652;28;19908;-77
2022/06/01 12:56:16;;;;;;;;;;;;;;;;;;5056866;28;19912;-75
2022/06/01 12:59:03;;;;;;;;;;;;;;;;;;5078805;28;19916;-75
2022/06/01 13:01:49;;;;;;;;;;;;;;;;;;5077090;28;19927;-75
2022/06/01 13:04:36;;;;;;;;;;;;;;;;;;5068704;28;19920;-76
2022/06/01 13:07:22;;;;;;;;;;;;;;;;;;5069154;28;19913;-75
2022/06/01 13:10:09;;;;;;;;;;;;;;;;;;5067613;28;20006;-75
2022/06/01 13:12:55;;;;;;;;;;;;;;;;;;5060985;28;19909;-77
2022/06/01 13:15:45;;;;;;;;;;;;;;;;;;5067939;28;19908;-77
2022/06/01 13:18:31;;;;;;;;;;;;;;;;;;5068777;28;19924;-77
2022/06/01 13:21:18;;;;;;;;;;;;;;;;;;5060682;28;20543;-77
2022/06/01 13:24:04;;;;;;;;;;;;;;;;;;5066284;28;19924;-77
2022/06/01 13:26:51;;;;;;;;;;;;;;;;;;5061040;28;20406;-78
2022/06/01 13:29:38;;;;;;;;;;;;;;;;;;5060925;28;19922;-77
2022/06/01 13:32:24;;;;;;;;;;;;;;;;;;5061243;28;20285;-76
2022/06/01 13:35:10;;;;;;;;;;;;;;;;;;5066571;28;19924;-76
2022/06/01 13:37:57;;;;;;;;;;;;;;;;;;5068243;28;19935;-76
2022/06/01 13:40:43;;;;;;;;;;;;;;;;;;5067762;28;19909;-77
2022/06/01 13:43:30;;;;;;;;;;;;;;;;;;5066979;28;19919;-76
2022/06/01 13:46:16;;;;;;;;;;;;;;;;;;5061855;28;19912;-77
2022/06/01 13:49:04;;;;;;;;;;;;;;;;;;5079594;28;19920;-77
2022/06/01 13:51:50;;;;;;;;;;;;;;;;;;5068463;28;19912;-76
2022/06/01 13:54:37;;;;;;;;;;;;;;;;;;5059948;28;19913;-76
2022/06/01 13:57:25;;;;;;;;;;;;;;;;;;5068830;28;19920;-78
2022/06/01 14:00:11;;;;;;;;;;;;;;;;;;5054247;28;19912;-77
2022/06/01 14:02:58;;;;;;;;;;;;;;;;;;5067979;28;19924;-76
2022/06/01 14:05:45;;;;;;;;;;;;;;;;;;5056018;28;19908;-77
2022/06/01 14:08:31;;;;;;;;;;;;;;;;;;5094922;28;19919;-77
2022/06/01 14:11:18;;;;;;;;;;;;;;;;;;5068585;28;19916;-77
2022/06/01 14:14:04;;;;;;;;;;;;;;;;;;5070349;28;19908;-77
2022/06/01 14:16:51;;;;;;;;;;;;;;;;;;5067114;28;19921;-78
2022/06/01 14:19:37;;;;;;;;;;;;;;;;;;5065067;28;19928;-76
2022/06/01 14:22:24;;;;;;;;;;;;;;;;;;5071329;28;19920;-78
2022/06/01 14:28:32;;;;;;;;;;;;;;;;;;5076625;28;19918;-77
2022/06/01 14:31:18;;;;;;;;;;;;;;;;;;5073679;28;19909;-75
2022/06/01 14:34:06;;;;;;;;;;;;;;;;;;5071210;28;19920;-76
2022/06/01 14:36:52;;;;;;;;;;;;;;;;;;5066483;28;19912;-77
2022/06/01 14:39:42;;;;;;;;;;;;;;;;;;5070078;28;20458;-78
2022/06/01 14:42:28;;;;;;;;;;;;;;;;;;5059248;28;19927;-78
2022/06/01 14:45:15;;;;;;;;;;;;;;;;;;5077353;28;19909;-78
2022/06/01 14:48:01;;;;;;;;;;;;;;;;;;5070220;28;19916;-78
2022/06/01 14:50:48;;;;;;;;;;;;;;;;;;5060128;28;19920;-80
2022/06/01 14:53:34;;;;;;;;;;;;;;;;;;5097208;28;20261;-79
2022/06/01 14:56:21;;;;;;;;;;;;;;;;;;5057145;28;19920;-79
2022/06/01 14:59:08;;;;;;;;;;;;;;;;;;5071506;28;20590;-80
2022/06/01 15:01:54;;;;;;;;;;;;;;;;;;5071251;28;19928;-79
2022/06/01 15:04:41;;;;;;;;;;;;;;;;;;5071259;28;19917;-80
2022/06/01 15:07:27;;;;;;;;;;;;;;;;;;5054064;28;20438;-80
2022/06/01 15:10:14;;;;;;;;;;;;;;;;;;5067857;28;19936;-80
2022/06/01 15:13:00;;;;;;;;;;;;;;;;;;5070594;28;20283;-80
2022/06/01 15:15:47;;;;;;;;;;;;;;;;;;5082297;28;19908;-81
2022/06/01 15:18:33;;;;;;;;;;;;;;;;;;5064175;28;19919;-80
2022/06/01 15:21:20;;;;;;;;;;;;;;;;;;5063386;28;19931;-81
2022/06/01 15:24:06;;;;;;;;;;;;;;;;;;5069364;28;20349;-80
2022/06/01 15:26:53;;;;;;;;;;;;;;;;;;5065662;28;20280;-81
2022/06/01 15:42:03;;;;;;;;;;;;;;;;;;5066484;28;19930;-79
2022/06/01 15:44:49;;;;;;;;;;;;;;;;;;5085732;28;19915;-81
2022/06/01 15:47:36;;;;;;;;;;;;;;;;;;5065836;28;19928;-79
2022/06/01 15:50:22;;;;;;;;;;;;;;;;;;5071158;28;19909;-82
2022/06/01 15:53:10;;;;;;;;;;;;;;;;;;5063307;28;20276;-81
2022/06/01 15:55:56;;;;;;;;;;;;;;;;;;5065629;28;19940;-80
2022/06/01 15:58:43;;;;;;;;;;;;;;;;;;5063892;28;19908;-80
2022/06/01 16:01:29;;;;;;;;;;;;;;;;;;5067237;28;19921;-80
2022/06/01 16:04:16;;;;;;;;;;;;;;;;;;5068128;28;19912;-81
2022/06/01 16:07:02;;;;;;;;;;;;;;;;;;5060060;28;19908;-82
2022/06/01 16:09:49;;;;;;;;;;;;;;;;;;5076356;28;19912;-82
2022/06/01 16:12:35;;;;;;;;;;;;;;;;;;5062749;28;19908;-82
2022/06/01 16:15:24;;;;;;;;;;;;;;;;;;5089896;28;19908;-82
2022/06/01 16:18:10;;;;;;;;;;;;;;;;;;5068411;28;19916;-82
2022/06/01 16:20:57;;;;;;;;;;;;;;;;;;5074271;28;19919;-81
2022/06/01 16:23:43;;;;;;;;;;;;;;;;;;5068090;28;19917;-80
2022/06/01 16:26:30;;;;;;;;;;;;;;;;;;5081928;28;19919;-84
2022/06/01 16:29:16;;;;;;;;;;;;;;;;;;5084308;28;19909;-81
2022/06/01 16:32:03;;;;;;;;;;;;;;;;;;5081198;28;19927;-84
2022/06/01 16:34:49;;;;;;;;;;;;;;;;;;5071278;28;20024;-82
2022/06/01 16:37:39;;;;;;;;;;;;;;;;;;5066038;28;19922;-80
2022/06/01 16:40:25;;;;;;;;;;;;;;;;;;5074060;28;19912;-80
2022/06/01 16:43:12;;;;;;;;;;;;;;;;;;5068196;28;19920;-82
2022/06/01 16:45:58;;;;;;;;;;;;;;;;;;5070041;28;19920;-81
2022/06/01 16:48:45;;;;;;;;;;;;;;;;;;5069984;28;19908;-82
2022/06/01 16:51:31;;;;;;;;;;;;;;;;;;5083470;28;19912;-84
2022/06/01 16:54:18;;;;;;;;;;;;;;;;;;5072346;28;19912;-81
2022/06/01 16:57:05;;;;;;;;;;;;;;;;;;5073232;28;19918;-80
2022/06/01 16:59:51;;;;;;;;;;;;;;;;;;5075941;28;19912;-79
2022/06/01 17:02:38;;;;;;;;;;;;;;;;;;5077560;28;19921;-80
2022/06/01 17:05:24;;;;;;;;;;;;;;;;;;5069807;28;19921;-80
2022/06/01 17:08:11;;;;;;;;;;;;;;;;;;5077094;28;19919;-81
2022/06/01 17:10:57;;;;;;;;;;;;;;;;;;5073198;28;19959;-81
2022/06/01 17:13:45;;;;;;;;;;;;;;;;;;5071612;28;19908;-82
2022/06/01 17:16:31;;;;;;;;;;;;;;;;;;5069523;28;19916;-82
2022/06/01 17:19:17;;;;;;;;;;;;;;;;;;5075865;28;19916;-83
2022/06/01 17:22:04;;;;;;;;;;;;;;;;;;5074779;28;19924;-78
2022/06/01 17:24:50;;;;;;;;;;;;;;;;;;5068255;28;19913;-83
2022/06/01 17:27:37;;;;;;;;;;;;;;;;;;5068790;28;19919;-81
2022/06/01 17:30:23;;;;;;;;;;;;;;;;;;5075663;28;19909;-81
2022/06/01 17:33:10;;;;;;;;;;;;;;;;;;5089882;28;19920;-82
2022/06/01 17:35:56;;;;;;;;;;;;;;;;;;5073537;28;19913;-82
2022/06/01 17:38:43;;;;;;;;;;;;;;;;;;5076681;28;19908;-81
2022/06/01 17:41:30;;;;;;;;;;;;;;;;;;5074115;28;19917;-81
2022/06/01 17:44:16;;;;;;;;;;;;;;;;;;5070462;28;19923;-79
2022/06/01 17:47:02;;;;;;;;;;;;;;;;;;5070220;28;19913;-81
2022/06/01 17:49:49;;;;;;;;;;;;;;;;;;5074172;28;19913;-81
2022/06/01 17:52:35;;;;;;;;;;;;;;;;;;5071078;28;19913;-79
2022/06/01 17:55:22;;;;;;;;;;;;;;;;;;5067334;28;19943;-85
2022/06/01 17:58:08;;;;;;;;;;;;;;;;;;5072739;28;19931;-85
2022/06/01 18:00:55;;;;;;;;;;;;;;;;;;5098665;28;20364;-84
2022/06/01 18:03:42;;;;;;;;;;;;;;;;;;5088346;28;19922;-87
2022/06/01 18:06:28;;;;;;;;;;;;;;;;;;5074111;28;19938;-87
2022/06/01 18:09:15;;;;;;;;;;;;;;;;;;5069885;28;19936;-87
2022/06/01 18:12:02;;;;;;;;;;;;;;;;;;5073227;28;19919;-84
2022/06/01 18:14:48;;;;;;;;;;;;;;;;;;5083042;28;19935;-93
2022/06/01 18:17:35;;;;;;;;;;;;;;;;;;5075716;28;19917;-91
2022/06/01 18:20:22;;;;;;;;;;;;;;;;;;5075001;28;19919;-90
2022/06/01 18:23:08;;;;;;;;;;;;;;;;;;5070183;28;20020;-92
2022/06/01 18:25:58;;;;;;;;;;;;;;;;;;5075905;28;19909;-89
2022/06/01 18:28:45;;;;;;;;;;;;;;;;;;5073317;28;19912;-86
2022/06/01 18:31:31;;;;;;;;;;;;;;;;;;5083631;28;19919;-89
2022/06/01 18:34:18;;;;;;;;;;;;;;;;;;5072435;28;19939;-88
2022/06/01 18:37:04;;;;;;;;;;;;;;;;;;5065338;28;19916;-81
2022/06/01 18:39:50;;;;;;;;;;;;;;;;;;5066470;28;19909;-81
2022/06/01 18:42:37;;;;;;;;;;;;;;;;;;5071008;28;19928;-80
2022/06/01 18:45:23;;;;;;;;;;;;;;;;;;5069230;28;19913;-80
2022/06/01 18:48:10;;;;;;;;;;;;;;;;;;5071314;28;19908;-84
2022/06/01 18:51:01;;;;;;;;;;;;;;;;;;5070029;28;19913;-83
2022/06/01 18:53:47;;;;;;;;;;;;;;;;;;5066937;28;19912;-83
2022/06/01 18:56:34;;;;;;;;;;;;;;;;;;5068713;28;20265;-81
2022/06/01 19:02:26;;;;;;;;;;;;;;;;;;5064000;28;19927;-80
2022/06/01 19:05:12;;;;;;;;;;;;;;;;;;5081480;28;20391;-82
2022/06/01 19:07:59;;;;;;;;;;;;;;;;;;5067549;28;19927;-82
2022/06/01 19:10:45;;;;;;;;;;;;;;;;;;5066238;28;20352;-84
2022/06/01 19:13:33;;;;;;;;;;;;;;;;;;5069616;28;19908;-82
2022/06/01 19:16:19;;;;;;;;;;;;;;;;;;5070719;28;19916;-79
2022/06/01 19:19:06;;;;;;;;;;;;;;;;;;5071338;28;19939;-81
2022/06/01 19:21:52;;;;;;;;;;;;;;;;;;5069667;28;19920;-81
2022/06/01 19:24:39;;;;;;;;;;;;;;;;;;5071122;28;19913;-81
2022/06/01 19:27:25;;;;;;;;;;;;;;;;;;5071601;28;19917;-81
2022/06/01 19:30:12;;;;;;;;;;;;;;;;;;5069305;28;19998;-81
2022/06/01 19:32:58;;;;;;;;;;;;;;;;;;5068326;28;19922;-80
2022/06/01 19:44:04;;;;;;;;;;;;;;;;;;5082977;28;19915;-78
2022/06/01 19:45:02;;;;;;;;;;;;;;;;;;5077242;28;19927;-78
2022/06/01 19:47:51;;;;;;;;;;;;;;;;;;5065789;28;20284;-81
2022/06/01 19:50:40;;;;;;;;;;;;;;;;;;5072425;28;19908;-78